KAFO/AFO METAR and TAF weather

Enter ICAO airport designator
Station Type Date Time Source
KAFO METAR 2020/02/19 11:15 UTC NOAA

KAFO 191115Z AUTO 00000KT CLR M30/M32 A3022 RMK AO2 PWINO


Station Type Date Time Source
KAFO Decoded METAR 2020/02/19 11:15 UTC NOAA

Station name not available
Feb 19, 2020 - 06:15 AM EST / 2020.02.19 1115 UTC
Wind: Calm:0
Sky conditions: clear
Temperature: -22 F (-30 C)
Dew Point: -25 F (-32 C)
Relative Humidity: 82%
Pressure (altimeter): 30.22 in. Hg (1023 hPa)
ob: KAFO 191115Z AUTO 00000KT CLR M30/M32 A3022 RMK AO2 PWINO
cycle: 11

Station Type Date Time Source
KAFO TAF UTC NOAA

Error!

Example: see airport list